sensor_id;sensor_type;location;lat;lon;timestamp;pressure;altitude;pressure_sealevel;temperature;humidity
74437;BME280;62868;52.360;30.424;2022-10-04T00:04:04;1009.4;;;7.7;70.2
74437;BME280;62868;52.360;30.424;2022-10-04T00:09:07;1009.4;;;7.7;70.3
74437;BME280;62868;52.360;30.424;2022-10-04T00:14:06;1009.5;;;7.7;70.3
74437;BME280;62868;52.360;30.424;2022-10-04T00:18:43;1009.5;;;7.7;70.2
74437;BME280;62868;52.360;30.424;2022-10-04T00:24:08;1009.5;;;7.7;70.2
74437;BME280;62868;52.360;30.424;2022-10-04T00:29:35;1009.6;;;7.7;70.2
74437;BME280;62868;52.360;30.424;2022-10-04T00:33:52;1009.7;;;7.7;70.2
74437;BME280;62868;52.360;30.424;2022-10-04T00:38:32;1009.7;;;7.7;70.3
74437;BME280;62868;52.360;30.424;2022-10-04T00:43:41;1009.7;;;7.6;70.3
74437;BME280;62868;52.360;30.424;2022-10-04T00:48:51;1009.7;;;7.7;70.3
74437;BME280;62868;52.360;30.424;2022-10-04T00:53:43;1009.8;;;7.7;70.3
74437;BME280;62868;52.360;30.424;2022-10-04T00:58:34;1009.8;;;7.6;70.3
74437;BME280;62868;52.360;30.424;2022-10-04T01:04:05;1009.9;;;7.6;70.3
74437;BME280;62868;52.360;30.424;2022-10-04T01:08:55;1009.9;;;7.6;70.3
74437;BME280;62868;52.360;30.424;2022-10-04T01:13:56;1009.9;;;7.6;70.2
74437;BME280;62868;52.360;30.424;2022-10-04T01:18:52;1010;;;7.6;70.2
74437;BME280;62868;52.360;30.424;2022-10-04T01:29:11;1010.1;;;7.6;70.2
74437;BME280;62868;52.360;30.424;2022-10-04T01:33:42;1010.1;;;7.6;70.2
74437;BME280;62868;52.360;30.424;2022-10-04T01:38:32;1010.1;;;7.6;70.2
74437;BME280;62868;52.360;30.424;2022-10-04T01:43:57;1010.1;;;7.7;70.1
74437;BME280;62868;52.360;30.424;2022-10-04T01:49:10;1010.1;;;7.7;70.1
74437;BME280;62868;52.360;30.424;2022-10-04T01:54:00;1010.2;;;7.7;70.2
74437;BME280;62868;52.360;30.424;2022-10-04T01:58:57;1010.2;;;7.6;70.2
74437;BME280;62868;52.360;30.424;2022-10-04T02:03:51;1010.3;;;7.6;70.2
74437;BME280;62868;52.360;30.424;2022-10-04T02:08:56;1010.3;;;7.6;70.1
74437;BME280;62868;52.360;30.424;2022-10-04T02:13:51;1010.4;;;7.5;70.1
74437;BME280;62868;52.360;30.424;2022-10-04T02:18:52;1010.4;;;7.5;70.1
74437;BME280;62868;52.360;30.424;2022-10-04T02:24:12;1010.5;;;7.5;70.1
74437;BME280;62868;52.360;30.424;2022-10-04T02:29:00;1010.6;;;7.4;70
74437;BME280;62868;52.360;30.424;2022-10-04T02:33:32;1010.7;;;7.4;70
74437;BME280;62868;52.360;30.424;2022-10-04T02:39:13;1010.7;;;7.4;70
74437;BME280;62868;52.360;30.424;2022-10-04T02:43:45;1010.8;;;7.4;70
74437;BME280;62868;52.360;30.424;2022-10-04T02:49:18;1010.8;;;7.4;70
74437;BME280;62868;52.360;30.424;2022-10-04T02:53:36;1010.9;;;7.4;70.1
74437;BME280;62868;52.360;30.424;2022-10-04T02:59:05;1010.9;;;7.3;70.1
74437;BME280;62868;52.360;30.424;2022-10-04T03:04:11;1011;;;7.4;70
74437;BME280;62868;52.360;30.424;2022-10-04T03:08:49;1011;;;7.4;70
74437;BME280;62868;52.360;30.424;2022-10-04T03:13:50;1011;;;7.4;69.9
74437;BME280;62868;52.360;30.424;2022-10-04T03:18:42;1011.1;;;7.5;69.9
74437;BME280;62868;52.360;30.424;2022-10-04T03:24:01;1011.1;;;7.5;70
74437;BME280;62868;52.360;30.424;2022-10-04T03:28:45;1011.1;;;7.5;70
74437;BME280;62868;52.360;30.424;2022-10-04T03:34:01;1011.1;;;7.5;70
74437;BME280;62868;52.360;30.424;2022-10-04T03:39:15;1011.2;;;7.6;70
74437;BME280;62868;52.360;30.424;2022-10-04T03:44:15;1011.2;;;7.6;70.1
74437;BME280;62868;52.360;30.424;2022-10-04T03:48:47;1011.2;;;7.6;70
74437;BME280;62868;52.360;30.424;2022-10-04T03:54:17;1011.3;;;7.6;70
74437;BME280;62868;52.360;30.424;2022-10-04T03:59:15;1011.3;;;7.7;70
74437;BME280;62868;52.360;30.424;2022-10-04T04:08:34;1011.4;;;7.7;70
74437;BME280;62868;52.360;30.424;2022-10-04T04:13:44;1011.5;;;7.7;70
74437;BME280;62868;52.360;30.424;2022-10-04T04:19:14;1011.5;;;7.7;70
74437;BME280;62868;52.360;30.424;2022-10-04T04:24:23;1011.5;;;7.8;70
74437;BME280;62868;52.360;30.424;2022-10-04T04:29:00;1011.6;;;7.8;70
74437;BME280;62868;52.360;30.424;2022-10-04T04:33:35;1011.6;;;7.8;70
74437;BME280;62868;52.360;30.424;2022-10-04T04:39:14;1011.7;;;7.9;70
74437;BME280;62868;52.360;30.424;2022-10-04T04:43:44;1011.7;;;7.9;70
74437;BME280;62868;52.360;30.424;2022-10-04T04:49:01;1011.8;;;8;70
74437;BME280;62868;52.360;30.424;2022-10-04T04:54:13;1011.9;;;8.1;69.9
74437;BME280;62868;52.360;30.424;2022-10-04T04:58:35;1011.9;;;8.2;69.9
74437;BME280;62868;52.360;30.424;2022-10-04T05:03:33;1012;;;8.1;69.9
74437;BME280;62868;52.360;30.424;2022-10-04T05:09:42;1012.1;;;8.2;69.9
74437;BME280;62868;52.360;30.424;2022-10-04T05:14:10;1012.1;;;8.2;69.9
74437;BME280;62868;52.360;30.424;2022-10-04T05:19:15;1012.2;;;8.2;70
74437;BME280;62868;52.360;30.424;2022-10-04T05:23:43;1012.2;;;8.3;69.9
74437;BME280;62868;52.360;30.424;2022-10-04T05:28:55;1012.3;;;8.3;69.9
74437;BME280;62868;52.360;30.424;2022-10-04T05:34:21;1012.4;;;8.4;69.9
74437;BME280;62868;52.360;30.424;2022-10-04T05:38:52;1012.4;;;8.5;69.9
74437;BME280;62868;52.360;30.424;2022-10-04T05:43:51;1012.5;;;8.6;69.8
74437;BME280;62868;52.360;30.424;2022-10-04T05:48:33;1012.6;;;8.6;69.8
74437;BME280;62868;52.360;30.424;2022-10-04T05:53:43;1012.6;;;8.8;69.8
74437;BME280;62868;52.360;30.424;2022-10-04T05:59:03;1012.7;;;8.8;69.7
74437;BME280;62868;52.360;30.424;2022-10-04T06:14:08;1012.9;;;9.1;69.6
74437;BME280;62868;52.360;30.424;2022-10-04T06:20:00;1012.9;;;9.1;69.6
74437;BME280;62868;52.360;30.424;2022-10-04T06:23:59;1013;;;9.1;69.6
74437;BME280;62868;52.360;30.424;2022-10-04T06:28:58;1013.1;;;9.2;69.5
74437;BME280;62868;52.360;30.424;2022-10-04T06:34:40;1013.1;;;9.3;69.5
74437;BME280;62868;52.360;30.424;2022-10-04T06:48:47;1013.4;;;9.6;69.2
74437;BME280;62868;52.360;30.424;2022-10-04T07:04:32;1013.5;;;10.1;68.7
74437;BME280;62868;52.360;30.424;2022-10-04T07:08:57;1013.6;;;10.2;68.6
74437;BME280;62868;52.360;30.424;2022-10-04T07:13:58;1013.6;;;10.4;68.5
74437;BME280;62868;52.360;30.424;2022-10-04T07:18:58;1013.6;;;10.4;68.5
74437;BME280;62868;52.360;30.424;2022-10-04T07:24:10;1013.7;;;10.5;68.4
74437;BME280;62868;52.360;30.424;2022-10-04T07:28:49;1013.7;;;10.8;68.1
74437;BME280;62868;52.360;30.424;2022-10-04T07:33:34;1013.8;;;11.1;67.9
74437;BME280;62868;52.360;30.424;2022-10-04T07:38:50;1013.8;;;11.5;67.4
74437;BME280;62868;52.360;30.424;2022-10-04T07:44:02;1013.9;;;11.7;67
74437;BME280;62868;52.360;30.424;2022-10-04T07:49:10;1014;;;12;66.6
74437;BME280;62868;52.360;30.424;2022-10-04T07:53:44;1014;;;12.7;65.7
74437;BME280;62868;52.360;30.424;2022-10-04T08:04:20;1014.1;;;13.7;64.6
74437;BME280;62868;52.360;30.424;2022-10-04T08:08:49;1014.3;;;13;65.2
74437;BME280;62868;52.360;30.424;2022-10-04T08:13:37;1014.4;;;12.5;65.7
74437;BME280;62868;52.360;30.424;2022-10-04T08:18:37;1014.4;;;12.3;65.8
74437;BME280;62868;52.360;30.424;2022-10-04T08:24:42;1014.5;;;12.1;65.9
74437;BME280;62868;52.360;30.424;2022-10-04T08:33:55;1014.5;;;11.9;66
74437;BME280;62868;52.360;30.424;2022-10-04T08:39:05;1014.5;;;11.9;66
74437;BME280;62868;52.360;30.424;2022-10-04T08:44:16;1014.6;;;11.9;66.2
74437;BME280;62868;52.360;30.424;2022-10-04T08:59:04;1014.8;;;12.5;65.5
74437;BME280;62868;52.360;30.424;2022-10-04T09:04:40;1014.8;;;13;64.9
74437;BME280;62868;52.360;30.424;2022-10-04T09:09:28;1014.9;;;13.3;64.5
74437;BME280;62868;52.360;30.424;2022-10-04T09:18:44;1015;;;13;64.6
74437;BME280;62868;52.360;30.424;2022-10-04T09:24:18;1015;;;13;64.4
74437;BME280;62868;52.360;30.424;2022-10-04T09:34:06;1015.2;;;13;64.1
74437;BME280;62868;52.360;30.424;2022-10-04T09:38:58;1015.2;;;13.2;63.9
74437;BME280;62868;52.360;30.424;2022-10-04T09:49:04;1015.2;;;13.9;62.9
74437;BME280;62868;52.360;30.424;2022-10-04T09:54:30;1015.3;;;14.6;62.2
74437;BME280;62868;52.360;30.424;2022-10-04T09:58:53;1015.4;;;14.7;62.1
74437;BME280;62868;52.360;30.424;2022-10-04T10:03:39;1015.5;;;14.7;62.1
74437;BME280;62868;52.360;30.424;2022-10-04T10:08:41;1015.5;;;14.2;62.5
74437;BME280;62868;52.360;30.424;2022-10-04T10:14:45;1015.6;;;13.8;63
74437;BME280;62868;52.360;30.424;2022-10-04T10:24:27;1015.7;;;13.2;63.5
74437;BME280;62868;52.360;30.424;2022-10-04T10:29:15;1015.8;;;13.2;63.5
74437;BME280;62868;52.360;30.424;2022-10-04T10:34:08;1015.8;;;13.4;63.2
74437;BME280;62868;52.360;30.424;2022-10-04T10:39:57;1015.8;;;13.8;62.8
74437;BME280;62868;52.360;30.424;2022-10-04T10:44:23;1015.8;;;14.2;62.3
74437;BME280;62868;52.360;30.424;2022-10-04T10:59:51;1016;;;14.4;62.2
74437;BME280;62868;52.360;30.424;2022-10-04T11:04:59;1016;;;14.4;62
74437;BME280;62868;52.360;30.424;2022-10-04T11:14:10;1016;;;14.4;61.7
74437;BME280;62868;52.360;30.424;2022-10-04T11:29:11;1016.2;;;13.8;62.6
74437;BME280;62868;52.360;30.424;2022-10-04T11:34:10;1016.2;;;13.5;62.9
74437;BME280;62868;52.360;30.424;2022-10-04T11:39:00;1016.3;;;13.4;63.1
74437;BME280;62868;52.360;30.424;2022-10-04T11:43:37;1016.4;;;13.5;62.9
74437;BME280;62868;52.360;30.424;2022-10-04T11:48:37;1016.4;;;13.5;63
74437;BME280;62868;52.360;30.424;2022-10-04T11:54:04;1016.5;;;13.4;63.3
74437;BME280;62868;52.360;30.424;2022-10-04T12:04:38;1016.6;;;13.4;63.3
74437;BME280;62868;52.360;30.424;2022-10-04T12:09:01;1016.7;;;13.4;63.2
74437;BME280;62868;52.360;30.424;2022-10-04T12:13:55;1016.8;;;13.4;63.2
74437;BME280;62868;52.360;30.424;2022-10-04T12:19:05;1016.8;;;13.3;63.3
74437;BME280;62868;52.360;30.424;2022-10-04T12:24:08;1016.8;;;13.2;63.3
74437;BME280;62868;52.360;30.424;2022-10-04T12:28:56;1016.9;;;13.2;63.2
74437;BME280;62868;52.360;30.424;2022-10-04T12:34:15;1016.9;;;13.2;63.3
74437;BME280;62868;52.360;30.424;2022-10-04T12:39:11;1017;;;13.3;63.2
74437;BME280;62868;52.360;30.424;2022-10-04T12:44:09;1017.1;;;13.3;63.3
74437;BME280;62868;52.360;30.424;2022-10-04T12:49:02;1017.1;;;13.3;63.5
74437;BME280;62868;52.360;30.424;2022-10-04T12:53:50;1017.1;;;13.1;63.7
74437;BME280;62868;52.360;30.424;2022-10-04T12:59:16;1017.2;;;13;63.9
74437;BME280;62868;52.360;30.424;2022-10-04T13:04:17;1017.2;;;13;63.8
74437;BME280;62868;52.360;30.424;2022-10-04T13:09:06;1017.3;;;13;63.6
74437;BME280;62868;52.360;30.424;2022-10-04T13:13:57;1017.4;;;12.8;63.8
74437;BME280;62868;52.360;30.424;2022-10-04T13:18:45;1017.5;;;12.5;64.2
74437;BME280;62868;52.360;30.424;2022-10-04T13:23:40;1017.6;;;12.3;64.3
74437;BME280;62868;52.360;30.424;2022-10-04T13:28:48;1017.6;;;12.2;64.3
74437;BME280;62868;52.360;30.424;2022-10-04T13:39:18;1017.8;;;12.2;64.5
74437;BME280;62868;52.360;30.424;2022-10-04T13:44:04;1017.8;;;12.2;64.7
74437;BME280;62868;52.360;30.424;2022-10-04T13:53:55;1017.9;;;12.2;65
74437;BME280;62868;52.360;30.424;2022-10-04T14:00:03;1017.9;;;12;65.2
74437;BME280;62868;52.360;30.424;2022-10-04T14:04:12;1018;;;12;65.3
74437;BME280;62868;52.360;30.424;2022-10-04T14:08:55;1018;;;12;65.3
74437;BME280;62868;52.360;30.424;2022-10-04T14:28:37;1018.1;;;11.9;65.7
74437;BME280;62868;52.360;30.424;2022-10-04T14:34:33;1018.2;;;11.8;65.8
74437;BME280;62868;52.360;30.424;2022-10-04T14:49:02;1018.4;;;11.7;66
74437;BME280;62868;52.360;30.424;2022-10-04T14:54:12;1018.4;;;11.6;66.1
74437;BME280;62868;52.360;30.424;2022-10-04T14:59:06;1018.5;;;11.5;66.4
74437;BME280;62868;52.360;30.424;2022-10-04T15:04:17;1018.6;;;11.4;66.5
74437;BME280;62868;52.360;30.424;2022-10-04T15:14:32;1018.8;;;11.3;66.7
74437;BME280;62868;52.360;30.424;2022-10-04T15:19:32;1018.9;;;11.4;66.8
74437;BME280;62868;52.360;30.424;2022-10-04T15:24:24;1019;;;11.3;66.9
74437;BME280;62868;52.360;30.424;2022-10-04T15:29:06;1019.1;;;11.3;67
74437;BME280;62868;52.360;30.424;2022-10-04T15:33:42;1019.2;;;11.3;67
74437;BME280;62868;52.360;30.424;2022-10-04T15:39:47;1019.3;;;11.3;67.1
74437;BME280;62868;52.360;30.424;2022-10-04T15:44:27;1019.4;;;11.3;67.2
74437;BME280;62868;52.360;30.424;2022-10-04T15:58:36;1019.6;;;11.2;67.5
74437;BME280;62868;52.360;30.424;2022-10-04T16:04:57;1019.7;;;11.1;67.5
74437;BME280;62868;52.360;30.424;2022-10-04T16:09:29;1019.8;;;11.1;67.5
74437;BME280;62868;52.360;30.424;2022-10-04T16:14:50;1019.9;;;11;67.5
74437;BME280;62868;52.360;30.424;2022-10-04T16:19:47;1020;;;11;67.6
74437;BME280;62868;52.360;30.424;2022-10-04T16:24:27;1020.1;;;11;67.6
74437;BME280;62868;52.360;30.424;2022-10-04T16:34:45;1020.2;;;11;67.7
74437;BME280;62868;52.360;30.424;2022-10-04T16:39:29;1020.3;;;11;67.7
74437;BME280;62868;52.360;30.424;2022-10-04T16:43:33;1020.3;;;11;67.8
74437;BME280;62868;52.360;30.424;2022-10-04T16:48:50;1020.4;;;11;67.8
74437;BME280;62868;52.360;30.424;2022-10-04T16:54:31;1020.4;;;11;67.8
74437;BME280;62868;52.360;30.424;2022-10-04T16:59:00;1020.4;;;11;67.9
74437;BME280;62868;52.360;30.424;2022-10-04T17:09:07;1020.5;;;11;67.9
74437;BME280;62868;52.360;30.424;2022-10-04T17:14:05;1020.5;;;11;68
74437;BME280;62868;52.360;30.424;2022-10-04T17:19:29;1020.5;;;11;68
74437;BME280;62868;52.360;30.424;2022-10-04T17:24:34;1020.5;;;10.9;68
74437;BME280;62868;52.360;30.424;2022-10-04T17:29:27;1020.6;;;10.9;68.1
74437;BME280;62868;52.360;30.424;2022-10-04T17:44:10;1020.7;;;10.9;68.2
74437;BME280;62868;52.360;30.424;2022-10-04T17:49:07;1020.7;;;10.8;68.2
74437;BME280;62868;52.360;30.424;2022-10-04T17:55:21;1020.8;;;10.8;68.3
74437;BME280;62868;52.360;30.424;2022-10-04T17:58:48;1020.8;;;10.8;68.3
74437;BME280;62868;52.360;30.424;2022-10-04T18:09:20;1020.9;;;10.7;68.6
74437;BME280;62868;52.360;30.424;2022-10-04T18:13:44;1020.9;;;10.7;68.6
74437;BME280;62868;52.360;30.424;2022-10-04T18:18:42;1021;;;10.7;68.6
74437;BME280;62868;52.360;30.424;2022-10-04T18:23:35;1021.1;;;10.7;68.6
74437;BME280;62868;52.360;30.424;2022-10-04T18:28:33;1021.2;;;10.7;68.7
74437;BME280;62868;52.360;30.424;2022-10-04T18:33:51;1021.2;;;10.7;68.7
74437;BME280;62868;52.360;30.424;2022-10-04T18:39:18;1021.3;;;10.7;68.7
74437;BME280;62868;52.360;30.424;2022-10-04T18:44:16;1021.4;;;10.7;68.7
74437;BME280;62868;52.360;30.424;2022-10-04T18:49:15;1021.5;;;10.7;68.8
74437;BME280;62868;52.360;30.424;2022-10-04T18:59:19;1021.6;;;10.8;68.8
74437;BME280;62868;52.360;30.424;2022-10-04T19:04:15;1021.6;;;10.8;68.7
74437;BME280;62868;52.360;30.424;2022-10-04T19:13:43;1021.7;;;10.7;68.9
74437;BME280;62868;52.360;30.424;2022-10-04T19:24:18;1021.8;;;10.7;68.8
74437;BME280;62868;52.360;30.424;2022-10-04T19:29:04;1021.8;;;10.8;68.9
74437;BME280;62868;52.360;30.424;2022-10-04T19:34:02;1021.9;;;10.8;68.8
74437;BME280;62868;52.360;30.424;2022-10-04T19:39:10;1021.9;;;10.8;68.8
74437;BME280;62868;52.360;30.424;2022-10-04T19:44:08;1022;;;10.8;68.7
74437;BME280;62868;52.360;30.424;2022-10-04T19:49:01;1022.1;;;10.8;68.7
74437;BME280;62868;52.360;30.424;2022-10-04T19:54:02;1022.2;;;10.8;68.7
74437;BME280;62868;52.360;30.424;2022-10-04T19:59:15;1022.3;;;10.8;68.8
74437;BME280;62868;52.360;30.424;2022-10-04T20:03:33;1022.4;;;10.7;68.8
74437;BME280;62868;52.360;30.424;2022-10-04T20:08:50;1022.4;;;10.7;68.8
74437;BME280;62868;52.360;30.424;2022-10-04T20:13:33;1022.4;;;10.7;68.8
74437;BME280;62868;52.360;30.424;2022-10-04T20:19:14;1022.4;;;10.7;68.8
74437;BME280;62868;52.360;30.424;2022-10-04T20:24:16;1022.4;;;10.7;68.9
74437;BME280;62868;52.360;30.424;2022-10-04T20:28:55;1022.5;;;10.7;68.9
74437;BME280;62868;52.360;30.424;2022-10-04T20:34:47;1022.5;;;10.7;68.9
74437;BME280;62868;52.360;30.424;2022-10-04T20:39:01;1022.6;;;10.7;68.9
74437;BME280;62868;52.360;30.424;2022-10-04T20:43:36;1022.7;;;10.6;68.9
74437;BME280;62868;52.360;30.424;2022-10-04T20:48:41;1022.7;;;10.6;68.9
74437;BME280;62868;52.360;30.424;2022-10-04T20:53:45;1022.7;;;10.6;68.9
74437;BME280;62868;52.360;30.424;2022-10-04T20:58:33;1022.8;;;10.4;69.1
74437;BME280;62868;52.360;30.424;2022-10-04T21:03:33;1022.9;;;10.4;69.2
74437;BME280;62868;52.360;30.424;2022-10-04T21:08:49;1022.9;;;10.4;69.2
74437;BME280;62868;52.360;30.424;2022-10-04T21:14:29;1022.9;;;10.4;69.1
74437;BME280;62868;52.360;30.424;2022-10-04T21:19:42;1022.9;;;10.4;69.2
74437;BME280;62868;52.360;30.424;2022-10-04T21:23:55;1023;;;10.3;69.2
74437;BME280;62868;52.360;30.424;2022-10-04T21:28:46;1023;;;10.4;69.2
74437;BME280;62868;52.360;30.424;2022-10-04T21:33:53;1023;;;10.3;69.3
74437;BME280;62868;52.360;30.424;2022-10-04T21:39:11;1023.1;;;10.2;69.4
74437;BME280;62868;52.360;30.424;2022-10-04T21:43:33;1023.1;;;10.3;69.4
74437;BME280;62868;52.360;30.424;2022-10-04T21:48:53;1023.1;;;10.3;69.4
74437;BME280;62868;52.360;30.424;2022-10-04T21:53:33;1023.2;;;10.2;69.4
74437;BME280;62868;52.360;30.424;2022-10-04T21:58:59;1023.2;;;10.2;69.5
74437;BME280;62868;52.360;30.424;2022-10-04T22:03:51;1023.2;;;10.3;69.4
74437;BME280;62868;52.360;30.424;2022-10-04T22:08:53;1023.3;;;10.3;69.5
74437;BME280;62868;52.360;30.424;2022-10-04T22:14:01;1023.4;;;10.3;69.5
74437;BME280;62868;52.360;30.424;2022-10-04T22:19:01;1023.4;;;10.3;69.5
74437;BME280;62868;52.360;30.424;2022-10-04T22:24:15;1023.5;;;10.4;69.5
74437;BME280;62868;52.360;30.424;2022-10-04T22:29:14;1023.5;;;10.4;69.4
74437;BME280;62868;52.360;30.424;2022-10-04T22:33:34;1023.6;;;10.4;69.4
74437;BME280;62868;52.360;30.424;2022-10-04T22:38:33;1023.6;;;10.5;69.4
74437;BME280;62868;52.360;30.424;2022-10-04T22:44:05;1023.6;;;10.5;69.4
74437;BME280;62868;52.360;30.424;2022-10-04T22:49:11;1023.7;;;10.5;69.4
74437;BME280;62868;52.360;30.424;2022-10-04T22:54:08;1023.7;;;10.5;69.4
74437;BME280;62868;52.360;30.424;2022-10-04T22:58:56;1023.8;;;10.5;69.4
74437;BME280;62868;52.360;30.424;2022-10-04T23:04:14;1023.7;;;10.6;69.4
74437;BME280;62868;52.360;30.424;2022-10-04T23:08:33;1023.7;;;10.6;69.4
74437;BME280;62868;52.360;30.424;2022-10-04T23:13:54;1023.7;;;10.6;69.4
74437;BME280;62868;52.360;30.424;2022-10-04T23:18:39;1023.8;;;10.6;69.4
74437;BME280;62868;52.360;30.424;2022-10-04T23:23:33;1023.8;;;10.7;69.3
74437;BME280;62868;52.360;30.424;2022-10-04T23:29:02;1023.8;;;10.7;69.4
74437;BME280;62868;52.360;30.424;2022-10-04T23:33:54;1023.8;;;10.7;69.4
74437;BME280;62868;52.360;30.424;2022-10-04T23:38:37;1023.9;;;10.8;69.4
74437;BME280;62868;52.360;30.424;2022-10-04T23:43:57;1023.9;;;10.8;69.4
74437;BME280;62868;52.360;30.424;2022-10-04T23:48:59;1024;;;10.9;69.3
74437;BME280;62868;52.360;30.424;2022-10-04T23:53:55;1024;;;10.9;69.3
74437;BME280;62868;52.360;30.424;2022-10-04T23:58:35;1024;;;10.9;69.3
